sensor_id;sensor_type;location;lat;lon;timestamp;temperature;humidity
30825;DHT22;17550;45.486;12.222;2023-04-30T00:01:41;15.20;99.90
30825;DHT22;17550;45.486;12.222;2023-04-30T00:04:07;15.20;99.90
30825;DHT22;17550;45.486;12.222;2023-04-30T00:06:32;15.20;99.90
30825;DHT22;17550;45.486;12.222;2023-04-30T00:08:58;15.20;99.90
30825;DHT22;17550;45.486;12.222;2023-04-30T00:11:24;15.20;99.90
30825;DHT22;17550;45.486;12.222;2023-04-30T00:13:52;15.20;99.90
30825;DHT22;17550;45.486;12.222;2023-04-30T00:16:18;15.20;99.90
30825;DHT22;17550;45.486;12.222;2023-04-30T00:18:44;15.30;99.90
30825;DHT22;17550;45.486;12.222;2023-04-30T00:21:10;15.20;99.90
30825;DHT22;17550;45.486;12.222;2023-04-30T00:23:35;15.20;99.90
30825;DHT22;17550;45.486;12.222;2023-04-30T00:26:01;15.10;99.90
30825;DHT22;17550;45.486;12.222;2023-04-30T00:28:27;15.20;99.90
30825;DHT22;17550;45.486;12.222;2023-04-30T00:30:52;15.20;99.90
30825;DHT22;17550;45.486;12.222;2023-04-30T00:33:18;15.30;99.90
30825;DHT22;17550;45.486;12.222;2023-04-30T00:35:44;15.30;99.90
30825;DHT22;17550;45.486;12.222;2023-04-30T00:38:10;15.30;99.90
30825;DHT22;17550;45.486;12.222;2023-04-30T00:40:36;15.30;99.90
30825;DHT22;17550;45.486;12.222;2023-04-30T00:43:02;15.40;99.90
30825;DHT22;17550;45.486;12.222;2023-04-30T00:45:28;15.40;99.90
30825;DHT22;17550;45.486;12.222;2023-04-30T00:47:54;15.40;99.90
30825;DHT22;17550;45.486;12.222;2023-04-30T00:50:19;15.40;99.90
30825;DHT22;17550;45.486;12.222;2023-04-30T00:52:45;15.40;99.90
30825;DHT22;17550;45.486;12.222;2023-04-30T00:55:11;15.40;99.90
30825;DHT22;17550;45.486;12.222;2023-04-30T00:57:38;15.40;99.90
30825;DHT22;17550;45.486;12.222;2023-04-30T01:00:05;15.40;99.90
30825;DHT22;17550;45.486;12.222;2023-04-30T01:02:35;15.40;99.90
30825;DHT22;17550;45.486;12.222;2023-04-30T01:05:02;15.40;99.90
30825;DHT22;17550;45.486;12.222;2023-04-30T01:07:28;15.40;99.90
30825;DHT22;17550;45.486;12.222;2023-04-30T01:09:54;15.40;99.90
30825;DHT22;17550;45.486;12.222;2023-04-30T01:12:24;15.40;99.90
30825;DHT22;17550;45.486;12.222;2023-04-30T01:15:13;15.40;99.90
30825;DHT22;17550;45.486;12.222;2023-04-30T01:18:00;15.30;99.90
30825;DHT22;17550;45.486;12.222;2023-04-30T01:20:29;15.20;99.90
30825;DHT22;17550;45.486;12.222;2023-04-30T01:28:37;15.10;99.90
30825;DHT22;17550;45.486;12.222;2023-04-30T01:31:14;15.10;99.90
30825;DHT22;17550;45.486;12.222;2023-04-30T01:33:41;15.00;99.90
30825;DHT22;17550;45.486;12.222;2023-04-30T01:36:30;14.90;99.90
30825;DHT22;17550;45.486;12.222;2023-04-30T01:42:24;14.70;99.90
30825;DHT22;17550;45.486;12.222;2023-04-30T01:50:51;14.40;99.90
30825;DHT22;17550;45.486;12.222;2023-04-30T01:53:23;14.30;99.90
30825;DHT22;17550;45.486;12.222;2023-04-30T01:56:04;14.30;99.90
30825;DHT22;17550;45.486;12.222;2023-04-30T01:58:31;14.30;99.90
30825;DHT22;17550;45.486;12.222;2023-04-30T02:00:57;14.20;99.90
30825;DHT22;17550;45.486;12.222;2023-04-30T02:03:23;14.20;99.90
30825;DHT22;17550;45.486;12.222;2023-04-30T02:05:49;14.20;99.90
30825;DHT22;17550;45.486;12.222;2023-04-30T02:08:15;14.20;99.90
30825;DHT22;17550;45.486;12.222;2023-04-30T02:10:41;14.30;99.90
30825;DHT22;17550;45.486;12.222;2023-04-30T02:13:06;14.30;99.90
30825;DHT22;17550;45.486;12.222;2023-04-30T02:15:32;14.30;99.90
30825;DHT22;17550;45.486;12.222;2023-04-30T02:17:58;14.40;99.90
30825;DHT22;17550;45.486;12.222;2023-04-30T02:20:24;14.40;99.90
30825;DHT22;17550;45.486;12.222;2023-04-30T02:22:50;14.30;99.90
30825;DHT22;17550;45.486;12.222;2023-04-30T02:25:15;14.30;99.90
30825;DHT22;17550;45.486;12.222;2023-04-30T02:27:41;14.30;99.90
30825;DHT22;17550;45.486;12.222;2023-04-30T02:30:07;14.30;99.90
30825;DHT22;17550;45.486;12.222;2023-04-30T02:32:33;14.40;99.90
30825;DHT22;17550;45.486;12.222;2023-04-30T02:34:59;14.40;99.90
30825;DHT22;17550;45.486;12.222;2023-04-30T02:37:25;14.40;99.90
30825;DHT22;17550;45.486;12.222;2023-04-30T02:39:51;14.40;99.90
30825;DHT22;17550;45.486;12.222;2023-04-30T02:42:17;14.40;99.90
30825;DHT22;17550;45.486;12.222;2023-04-30T02:44:43;14.40;99.90
30825;DHT22;17550;45.486;12.222;2023-04-30T02:47:08;14.40;99.90
30825;DHT22;17550;45.486;12.222;2023-04-30T02:49:34;14.40;99.90
30825;DHT22;17550;45.486;12.222;2023-04-30T02:52:00;14.40;99.90
30825;DHT22;17550;45.486;12.222;2023-04-30T02:54:26;14.30;99.90
30825;DHT22;17550;45.486;12.222;2023-04-30T02:56:52;14.30;99.90
30825;DHT22;17550;45.486;12.222;2023-04-30T02:59:18;14.40;99.90
30825;DHT22;17550;45.486;12.222;2023-04-30T03:01:43;14.30;99.90
30825;DHT22;17550;45.486;12.222;2023-04-30T03:04:09;14.40;99.90
30825;DHT22;17550;45.486;12.222;2023-04-30T03:06:35;14.40;99.90
30825;DHT22;17550;45.486;12.222;2023-04-30T03:09:01;14.50;99.90
30825;DHT22;17550;45.486;12.222;2023-04-30T03:11:27;14.40;99.90
30825;DHT22;17550;45.486;12.222;2023-04-30T03:13:53;14.40;99.90
30825;DHT22;17550;45.486;12.222;2023-04-30T03:16:19;14.40;99.90
30825;DHT22;17550;45.486;12.222;2023-04-30T03:18:46;14.40;99.90
30825;DHT22;17550;45.486;12.222;2023-04-30T03:21:12;14.40;99.90
30825;DHT22;17550;45.486;12.222;2023-04-30T03:23:38;14.40;99.90
30825;DHT22;17550;45.486;12.222;2023-04-30T03:26:04;14.30;99.90
30825;DHT22;17550;45.486;12.222;2023-04-30T03:28:30;14.40;99.90
30825;DHT22;17550;45.486;12.222;2023-04-30T03:30:56;14.30;99.90
30825;DHT22;17550;45.486;12.222;2023-04-30T03:33:23;14.30;99.90
30825;DHT22;17550;45.486;12.222;2023-04-30T03:35:49;14.20;99.90
30825;DHT22;17550;45.486;12.222;2023-04-30T03:38:16;14.30;99.90
30825;DHT22;17550;45.486;12.222;2023-04-30T03:40:42;14.20;99.90
30825;DHT22;17550;45.486;12.222;2023-04-30T03:43:07;14.20;99.90
30825;DHT22;17550;45.486;12.222;2023-04-30T03:45:33;14.20;99.90
30825;DHT22;17550;45.486;12.222;2023-04-30T03:47:59;14.20;99.90
30825;DHT22;17550;45.486;12.222;2023-04-30T03:50:25;14.20;99.90
30825;DHT22;17550;45.486;12.222;2023-04-30T03:52:51;14.20;99.90
30825;DHT22;17550;45.486;12.222;2023-04-30T03:55:16;14.20;99.90
30825;DHT22;17550;45.486;12.222;2023-04-30T03:57:43;14.20;99.90
30825;DHT22;17550;45.486;12.222;2023-04-30T04:00:10;14.10;99.90
30825;DHT22;17550;45.486;12.222;2023-04-30T04:02:36;14.20;99.90
30825;DHT22;17550;45.486;12.222;2023-04-30T04:05:03;14.10;99.90
30825;DHT22;17550;45.486;12.222;2023-04-30T04:07:29;14.10;99.90
30825;DHT22;17550;45.486;12.222;2023-04-30T04:09:54;14.20;99.90
30825;DHT22;17550;45.486;12.222;2023-04-30T04:12:20;14.20;99.90
30825;DHT22;17550;45.486;12.222;2023-04-30T04:14:46;14.20;99.90
30825;DHT22;17550;45.486;12.222;2023-04-30T04:17:12;14.30;99.90
30825;DHT22;17550;45.486;12.222;2023-04-30T04:19:39;14.20;99.90
30825;DHT22;17550;45.486;12.222;2023-04-30T04:22:05;14.20;99.90
30825;DHT22;17550;45.486;12.222;2023-04-30T04:24:31;14.20;99.90
30825;DHT22;17550;45.486;12.222;2023-04-30T04:26:57;14.20;99.90
30825;DHT22;17550;45.486;12.222;2023-04-30T04:29:24;14.30;99.90
30825;DHT22;17550;45.486;12.222;2023-04-30T04:31:50;14.20;99.90
30825;DHT22;17550;45.486;12.222;2023-04-30T04:34:16;14.20;99.90
30825;DHT22;17550;45.486;12.222;2023-04-30T04:36:42;14.20;99.90
30825;DHT22;17550;45.486;12.222;2023-04-30T04:39:08;14.20;99.90
30825;DHT22;17550;45.486;12.222;2023-04-30T04:41:34;14.20;99.90
30825;DHT22;17550;45.486;12.222;2023-04-30T04:44:02;14.20;99.90
30825;DHT22;17550;45.486;12.222;2023-04-30T04:46:30;14.20;99.90
30825;DHT22;17550;45.486;12.222;2023-04-30T04:48:56;14.20;99.90
30825;DHT22;17550;45.486;12.222;2023-04-30T04:51:23;14.20;99.90
30825;DHT22;17550;45.486;12.222;2023-04-30T04:53:48;14.20;99.90
30825;DHT22;17550;45.486;12.222;2023-04-30T04:56:14;14.20;99.90
30825;DHT22;17550;45.486;12.222;2023-04-30T04:58:41;14.30;99.90
30825;DHT22;17550;45.486;12.222;2023-04-30T05:01:07;14.40;99.90
30825;DHT22;17550;45.486;12.222;2023-04-30T05:03:33;14.40;99.90
30825;DHT22;17550;45.486;12.222;2023-04-30T05:06:02;14.50;99.90
30825;DHT22;17550;45.486;12.222;2023-04-30T05:08:27;14.50;99.90
30825;DHT22;17550;45.486;12.222;2023-04-30T05:10:53;14.60;99.90
30825;DHT22;17550;45.486;12.222;2023-04-30T05:13:19;14.60;99.90
30825;DHT22;17550;45.486;12.222;2023-04-30T05:15:45;14.60;99.90
30825;DHT22;17550;45.486;12.222;2023-04-30T05:18:10;14.60;99.90
30825;DHT22;17550;45.486;12.222;2023-04-30T05:20:36;14.60;99.90
30825;DHT22;17550;45.486;12.222;2023-04-30T05:23:02;14.70;99.90
30825;DHT22;17550;45.486;12.222;2023-04-30T05:25:27;14.70;99.90
30825;DHT22;17550;45.486;12.222;2023-04-30T05:27:54;14.70;99.90
30825;DHT22;17550;45.486;12.222;2023-04-30T05:30:20;14.70;99.90
30825;DHT22;17550;45.486;12.222;2023-04-30T05:32:46;14.70;99.90
30825;DHT22;17550;45.486;12.222;2023-04-30T05:35:15;14.70;99.90
30825;DHT22;17550;45.486;12.222;2023-04-30T05:37:41;14.70;99.90
30825;DHT22;17550;45.486;12.222;2023-04-30T05:40:08;14.70;99.90
30825;DHT22;17550;45.486;12.222;2023-04-30T05:42:34;14.70;99.90
30825;DHT22;17550;45.486;12.222;2023-04-30T05:45:01;14.70;99.90
30825;DHT22;17550;45.486;12.222;2023-04-30T05:47:27;14.70;99.90
30825;DHT22;17550;45.486;12.222;2023-04-30T05:49:52;14.70;99.90
30825;DHT22;17550;45.486;12.222;2023-04-30T05:52:18;14.70;99.90
30825;DHT22;17550;45.486;12.222;2023-04-30T05:54:44;14.70;99.90
30825;DHT22;17550;45.486;12.222;2023-04-30T05:57:10;14.70;99.90
30825;DHT22;17550;45.486;12.222;2023-04-30T05:59:35;14.60;99.90
30825;DHT22;17550;45.486;12.222;2023-04-30T06:02:01;14.60;99.90
30825;DHT22;17550;45.486;12.222;2023-04-30T06:04:27;14.60;99.90
30825;DHT22;17550;45.486;12.222;2023-04-30T06:06:53;14.50;99.90
30825;DHT22;17550;45.486;12.222;2023-04-30T06:09:19;14.50;99.90
30825;DHT22;17550;45.486;12.222;2023-04-30T06:11:44;14.50;99.90
30825;DHT22;17550;45.486;12.222;2023-04-30T06:14:17;14.50;99.90
30825;DHT22;17550;45.486;12.222;2023-04-30T06:16:44;14.50;99.90
30825;DHT22;17550;45.486;12.222;2023-04-30T06:19:11;14.50;99.90
30825;DHT22;17550;45.486;12.222;2023-04-30T06:21:37;14.60;99.90
30825;DHT22;17550;45.486;12.222;2023-04-30T06:24:03;14.60;99.90
30825;DHT22;17550;45.486;12.222;2023-04-30T06:26:28;14.60;99.90
30825;DHT22;17550;45.486;12.222;2023-04-30T06:28:55;14.60;99.90
30825;DHT22;17550;45.486;12.222;2023-04-30T06:31:21;14.60;99.90
30825;DHT22;17550;45.486;12.222;2023-04-30T06:33:47;14.70;99.90
30825;DHT22;17550;45.486;12.222;2023-04-30T06:36:13;14.70;99.90
30825;DHT22;17550;45.486;12.222;2023-04-30T06:38:39;14.70;99.90
30825;DHT22;17550;45.486;12.222;2023-04-30T06:41:05;14.70;99.90
30825;DHT22;17550;45.486;12.222;2023-04-30T06:43:31;14.80;99.90
30825;DHT22;17550;45.486;12.222;2023-04-30T06:45:57;14.90;99.90
30825;DHT22;17550;45.486;12.222;2023-04-30T06:48:22;14.90;99.90
30825;DHT22;17550;45.486;12.222;2023-04-30T06:50:48;15.00;99.90
30825;DHT22;17550;45.486;12.222;2023-04-30T06:53:14;15.10;99.90
30825;DHT22;17550;45.486;12.222;2023-04-30T06:55:41;15.20;99.90
30825;DHT22;17550;45.486;12.222;2023-04-30T06:58:07;15.30;99.90
30825;DHT22;17550;45.486;12.222;2023-04-30T07:00:36;15.30;99.90
30825;DHT22;17550;45.486;12.222;2023-04-30T07:03:04;15.40;99.90
30825;DHT22;17550;45.486;12.222;2023-04-30T07:05:31;15.50;99.90
30825;DHT22;17550;45.486;12.222;2023-04-30T07:07:57;15.50;99.90
30825;DHT22;17550;45.486;12.222;2023-04-30T07:10:23;15.50;99.90
30825;DHT22;17550;45.486;12.222;2023-04-30T07:12:49;15.50;99.90
30825;DHT22;17550;45.486;12.222;2023-04-30T07:15:15;15.50;99.90
30825;DHT22;17550;45.486;12.222;2023-04-30T07:17:40;15.50;99.90
30825;DHT22;17550;45.486;12.222;2023-04-30T07:20:07;15.50;99.90
30825;DHT22;17550;45.486;12.222;2023-04-30T07:22:33;15.50;99.90
30825;DHT22;17550;45.486;12.222;2023-04-30T07:24:59;15.50;99.90
30825;DHT22;17550;45.486;12.222;2023-04-30T07:27:27;15.40;99.90
30825;DHT22;17550;45.486;12.222;2023-04-30T07:29:53;15.40;99.90
30825;DHT22;17550;45.486;12.222;2023-04-30T07:32:20;15.40;99.90
30825;DHT22;17550;45.486;12.222;2023-04-30T07:34:46;15.40;99.90
30825;DHT22;17550;45.486;12.222;2023-04-30T07:37:13;15.40;99.90
30825;DHT22;17550;45.486;12.222;2023-04-30T07:39:39;15.40;99.90
30825;DHT22;17550;45.486;12.222;2023-04-30T07:42:05;15.40;99.90
30825;DHT22;17550;45.486;12.222;2023-04-30T07:44:31;15.40;99.90
30825;DHT22;17550;45.486;12.222;2023-04-30T07:46:57;15.40;99.90
30825;DHT22;17550;45.486;12.222;2023-04-30T07:49:27;15.40;99.90
30825;DHT22;17550;45.486;12.222;2023-04-30T07:51:53;15.50;99.90
30825;DHT22;17550;45.486;12.222;2023-04-30T07:54:19;15.50;99.90
30825;DHT22;17550;45.486;12.222;2023-04-30T07:56:44;15.60;99.90
30825;DHT22;17550;45.486;12.222;2023-04-30T07:59:10;15.60;99.90
30825;DHT22;17550;45.486;12.222;2023-04-30T08:01:36;15.60;99.90
30825;DHT22;17550;45.486;12.222;2023-04-30T08:04:01;15.60;99.90
30825;DHT22;17550;45.486;12.222;2023-04-30T08:06:27;15.70;99.90
30825;DHT22;17550;45.486;12.222;2023-04-30T08:08:53;15.80;99.90
30825;DHT22;17550;45.486;12.222;2023-04-30T08:11:19;15.80;99.90
30825;DHT22;17550;45.486;12.222;2023-04-30T08:13:45;15.90;99.90
30825;DHT22;17550;45.486;12.222;2023-04-30T08:16:11;15.90;99.90
30825;DHT22;17550;45.486;12.222;2023-04-30T08:18:36;16.00;99.90
30825;DHT22;17550;45.486;12.222;2023-04-30T08:21:09;16.00;99.90
30825;DHT22;17550;45.486;12.222;2023-04-30T08:23:36;16.10;99.90
30825;DHT22;17550;45.486;12.222;2023-04-30T08:26:01;16.20;99.90
30825;DHT22;17550;45.486;12.222;2023-04-30T08:28:27;16.20;99.90
30825;DHT22;17550;45.486;12.222;2023-04-30T08:30:53;16.20;99.90
30825;DHT22;17550;45.486;12.222;2023-04-30T08:33:19;16.20;99.90
30825;DHT22;17550;45.486;12.222;2023-04-30T08:35:44;16.30;99.90
30825;DHT22;17550;45.486;12.222;2023-04-30T08:38:10;16.30;99.90
30825;DHT22;17550;45.486;12.222;2023-04-30T08:40:36;16.40;99.90
30825;DHT22;17550;45.486;12.222;2023-04-30T08:43:06;16.40;99.90
30825;DHT22;17550;45.486;12.222;2023-04-30T08:45:33;16.60;99.90
30825;DHT22;17550;45.486;12.222;2023-04-30T08:48:02;16.60;99.90
30825;DHT22;17550;45.486;12.222;2023-04-30T08:50:29;16.70;99.90
30825;DHT22;17550;45.486;12.222;2023-04-30T08:52:57;16.70;99.90
30825;DHT22;17550;45.486;12.222;2023-04-30T08:55:25;16.70;99.90
30825;DHT22;17550;45.486;12.222;2023-04-30T08:57:51;16.70;99.90
30825;DHT22;17550;45.486;12.222;2023-04-30T09:00:17;16.80;99.90
30825;DHT22;17550;45.486;12.222;2023-04-30T09:02:43;16.80;99.90
30825;DHT22;17550;45.486;12.222;2023-04-30T09:05:13;16.70;99.90
30825;DHT22;17550;45.486;12.222;2023-04-30T09:07:43;16.80;99.90
30825;DHT22;17550;45.486;12.222;2023-04-30T09:10:17;16.70;99.90
30825;DHT22;17550;45.486;12.222;2023-04-30T09:12:56;16.80;99.90
30825;DHT22;17550;45.486;12.222;2023-04-30T09:15:22;16.80;99.90
30825;DHT22;17550;45.486;12.222;2023-04-30T09:17:48;16.80;99.90
30825;DHT22;17550;45.486;12.222;2023-04-30T09:20:14;16.90;99.90
30825;DHT22;17550;45.486;12.222;2023-04-30T09:22:41;16.90;99.90
30825;DHT22;17550;45.486;12.222;2023-04-30T09:25:08;17.00;99.90
30825;DHT22;17550;45.486;12.222;2023-04-30T09:27:34;17.00;99.90
30825;DHT22;17550;45.486;12.222;2023-04-30T09:29:59;17.10;99.90
30825;DHT22;17550;45.486;12.222;2023-04-30T09:32:26;17.20;99.90
30825;DHT22;17550;45.486;12.222;2023-04-30T09:34:52;17.30;99.90
30825;DHT22;17550;45.486;12.222;2023-04-30T09:37:17;17.40;99.90
30825;DHT22;17550;45.486;12.222;2023-04-30T09:39:51;17.30;99.90
30825;DHT22;17550;45.486;12.222;2023-04-30T09:42:18;17.30;99.90
30825;DHT22;17550;45.486;12.222;2023-04-30T09:44:44;17.40;99.90
30825;DHT22;17550;45.486;12.222;2023-04-30T09:47:18;17.40;99.90
30825;DHT22;17550;45.486;12.222;2023-04-30T09:49:47;17.50;99.90
30825;DHT22;17550;45.486;12.222;2023-04-30T09:52:16;17.60;99.90
30825;DHT22;17550;45.486;12.222;2023-04-30T09:54:46;17.50;99.90
30825;DHT22;17550;45.486;12.222;2023-04-30T09:57:15;17.60;99.90
30825;DHT22;17550;45.486;12.222;2023-04-30T09:59:45;17.60;99.90
30825;DHT22;17550;45.486;12.222;2023-04-30T10:02:14;17.60;99.90
30825;DHT22;17550;45.486;12.222;2023-04-30T10:04:48;17.70;99.90
30825;DHT22;17550;45.486;12.222;2023-04-30T10:07:20;17.70;99.90
30825;DHT22;17550;45.486;12.222;2023-04-30T10:09:49;17.80;99.90
30825;DHT22;17550;45.486;12.222;2023-04-30T10:12:23;17.70;99.90
30825;DHT22;17550;45.486;12.222;2023-04-30T10:15:08;17.80;99.90
30825;DHT22;17550;45.486;12.222;2023-04-30T10:17:37;17.80;99.90
30825;DHT22;17550;45.486;12.222;2023-04-30T10:20:07;17.80;99.90
30825;DHT22;17550;45.486;12.222;2023-04-30T10:22:34;17.80;99.90
30825;DHT22;17550;45.486;12.222;2023-04-30T10:25:01;17.90;99.90
30825;DHT22;17550;45.486;12.222;2023-04-30T10:27:28;17.90;99.90
30825;DHT22;17550;45.486;12.222;2023-04-30T10:29:55;17.90;99.90
30825;DHT22;17550;45.486;12.222;2023-04-30T10:32:21;17.80;99.90
30825;DHT22;17550;45.486;12.222;2023-04-30T10:35:25;17.90;99.90
30825;DHT22;17550;45.486;12.222;2023-04-30T10:38:02;18.00;99.90
30825;DHT22;17550;45.486;12.222;2023-04-30T10:40:35;18.00;99.90
30825;DHT22;17550;45.486;12.222;2023-04-30T10:43:01;18.10;99.90
30825;DHT22;17550;45.486;12.222;2023-04-30T10:45:38;18.10;99.90
30825;DHT22;17550;45.486;12.222;2023-04-30T10:48:06;18.10;99.90
30825;DHT22;17550;45.486;12.222;2023-04-30T10:50:34;18.10;99.90
30825;DHT22;17550;45.486;12.222;2023-04-30T10:53:04;18.20;99.90
30825;DHT22;17550;45.486;12.222;2023-04-30T10:55:31;18.20;99.90
30825;DHT22;17550;45.486;12.222;2023-04-30T10:57:58;18.20;99.90
30825;DHT22;17550;45.486;12.222;2023-04-30T11:00:26;18.40;99.90
30825;DHT22;17550;45.486;12.222;2023-04-30T11:02:57;18.50;99.90
30825;DHT22;17550;45.486;12.222;2023-04-30T11:05:43;18.60;99.90
30825;DHT22;17550;45.486;12.222;2023-04-30T11:08:12;18.60;99.90
30825;DHT22;17550;45.486;12.222;2023-04-30T11:10:37;18.70;99.90
30825;DHT22;17550;45.486;12.222;2023-04-30T11:13:05;18.80;99.90
30825;DHT22;17550;45.486;12.222;2023-04-30T11:15:39;18.80;99.90
30825;DHT22;17550;45.486;12.222;2023-04-30T11:18:07;18.70;99.90
30825;DHT22;17550;45.486;12.222;2023-04-30T11:20:39;18.80;99.90
30825;DHT22;17550;45.486;12.222;2023-04-30T11:23:13;18.80;99.90
30825;DHT22;17550;45.486;12.222;2023-04-30T11:25:43;18.80;99.90
30825;DHT22;17550;45.486;12.222;2023-04-30T11:28:22;19.00;99.90
30825;DHT22;17550;45.486;12.222;2023-04-30T11:30:55;19.00;99.90
30825;DHT22;17550;45.486;12.222;2023-04-30T11:33:22;19.00;99.90
30825;DHT22;17550;45.486;12.222;2023-04-30T11:35:49;18.90;99.90
30825;DHT22;17550;45.486;12.222;2023-04-30T11:40:48;18.90;99.90
30825;DHT22;17550;45.486;12.222;2023-04-30T11:48:24;19.10;99.90
30825;DHT22;17550;45.486;12.222;2023-04-30T11:50:54;19.10;99.90
30825;DHT22;17550;45.486;12.222;2023-04-30T11:53:26;19.10;99.90
30825;DHT22;17550;45.486;12.222;2023-04-30T11:55:53;19.20;99.90
30825;DHT22;17550;45.486;12.222;2023-04-30T11:58:20;19.30;99.90
30825;DHT22;17550;45.486;12.222;2023-04-30T12:00:46;19.40;99.90
30825;DHT22;17550;45.486;12.222;2023-04-30T12:03:13;19.50;99.90
30825;DHT22;17550;45.486;12.222;2023-04-30T12:05:40;19.80;99.90
30825;DHT22;17550;45.486;12.222;2023-04-30T12:08:07;20.00;99.90
30825;DHT22;17550;45.486;12.222;2023-04-30T12:10:34;20.10;99.90
30825;DHT22;17550;45.486;12.222;2023-04-30T12:13:01;20.30;99.90
30825;DHT22;17550;45.486;12.222;2023-04-30T12:15:27;20.30;99.90
30825;DHT22;17550;45.486;12.222;2023-04-30T12:17:57;20.50;99.90
30825;DHT22;17550;45.486;12.222;2023-04-30T12:20:26;20.40;99.90
30825;DHT22;17550;45.486;12.222;2023-04-30T12:22:53;20.50;99.90
30825;DHT22;17550;45.486;12.222;2023-04-30T12:25:22;20.50;99.90
30825;DHT22;17550;45.486;12.222;2023-04-30T12:27:51;20.50;99.90
30825;DHT22;17550;45.486;12.222;2023-04-30T12:30:22;20.70;99.90
30825;DHT22;17550;45.486;12.222;2023-04-30T12:32:50;20.90;99.90
30825;DHT22;17550;45.486;12.222;2023-04-30T12:35:17;21.00;99.90
30825;DHT22;17550;45.486;12.222;2023-04-30T12:37:52;21.10;99.90
30825;DHT22;17550;45.486;12.222;2023-04-30T12:40:20;21.20;99.90
30825;DHT22;17550;45.486;12.222;2023-04-30T12:42:46;21.10;99.90
30825;DHT22;17550;45.486;12.222;2023-04-30T12:45:13;21.00;99.90
30825;DHT22;17550;45.486;12.222;2023-04-30T12:47:58;21.10;99.90
30825;DHT22;17550;45.486;12.222;2023-04-30T12:50:23;21.20;99.90
30825;DHT22;17550;45.486;12.222;2023-04-30T12:52:49;21.50;99.90
30825;DHT22;17550;45.486;12.222;2023-04-30T12:55:19;21.80;99.60
30825;DHT22;17550;45.486;12.222;2023-04-30T12:58:12;21.90;99.10
30825;DHT22;17550;45.486;12.222;2023-04-30T13:00:46;22.00;98.60
30825;DHT22;17550;45.486;12.222;2023-04-30T13:03:13;22.10;98.00
30825;DHT22;17550;45.486;12.222;2023-04-30T13:05:40;22.20;98.10
30825;DHT22;17550;45.486;12.222;2023-04-30T13:08:06;22.40;98.00
30825;DHT22;17550;45.486;12.222;2023-04-30T13:10:32;22.50;97.50
30825;DHT22;17550;45.486;12.222;2023-04-30T13:12:58;22.70;97.20
30825;DHT22;17550;45.486;12.222;2023-04-30T13:15:24;22.60;96.50
30825;DHT22;17550;45.486;12.222;2023-04-30T13:17:50;22.60;96.20
30825;DHT22;17550;45.486;12.222;2023-04-30T13:20:16;22.60;95.80
30825;DHT22;17550;45.486;12.222;2023-04-30T13:22:42;22.60;95.10
30825;DHT22;17550;45.486;12.222;2023-04-30T13:25:07;22.30;94.50
30825;DHT22;17550;45.486;12.222;2023-04-30T13:27:33;22.00;95.00
30825;DHT22;17550;45.486;12.222;2023-04-30T13:30:01;22.10;95.60
30825;DHT22;17550;45.486;12.222;2023-04-30T13:32:28;22.20;95.10
30825;DHT22;17550;45.486;12.222;2023-04-30T13:34:53;22.30;95.40
30825;DHT22;17550;45.486;12.222;2023-04-30T13:37:20;22.50;95.50
30825;DHT22;17550;45.486;12.222;2023-04-30T13:39:46;22.60;95.20
30825;DHT22;17550;45.486;12.222;2023-04-30T13:42:15;22.60;94.80
30825;DHT22;17550;45.486;12.222;2023-04-30T13:44:41;22.40;95.00
30825;DHT22;17550;45.486;12.222;2023-04-30T13:47:06;22.50;95.00
30825;DHT22;17550;45.486;12.222;2023-04-30T13:49:34;22.60;94.90
30825;DHT22;17550;45.486;12.222;2023-04-30T13:52:01;22.50;94.30
30825;DHT22;17550;45.486;12.222;2023-04-30T13:54:27;22.30;94.90
30825;DHT22;17550;45.486;12.222;2023-04-30T13:56:53;22.30;94.90
30825;DHT22;17550;45.486;12.222;2023-04-30T13:59:20;22.10;94.50
30825;DHT22;17550;45.486;12.222;2023-04-30T14:01:45;22.10;95.20
30825;DHT22;17550;45.486;12.222;2023-04-30T14:04:11;22.20;94.80
30825;DHT22;17550;45.486;12.222;2023-04-30T14:06:39;22.20;94.50
30825;DHT22;17550;45.486;12.222;2023-04-30T14:09:05;22.20;94.00
30825;DHT22;17550;45.486;12.222;2023-04-30T14:11:31;22.10;94.00
30825;DHT22;17550;45.486;12.222;2023-04-30T14:13:57;21.90;95.00
30825;DHT22;17550;45.486;12.222;2023-04-30T14:16:23;22.10;95.40
30825;DHT22;17550;45.486;12.222;2023-04-30T14:18:49;22.30;94.90
30825;DHT22;17550;45.486;12.222;2023-04-30T14:21:15;22.20;94.20
30825;DHT22;17550;45.486;12.222;2023-04-30T14:23:40;22.20;94.60
30825;DHT22;17550;45.486;12.222;2023-04-30T14:26:06;22.30;94.80
30825;DHT22;17550;45.486;12.222;2023-04-30T14:28:32;22.40;94.00
30825;DHT22;17550;45.486;12.222;2023-04-30T14:30:57;22.40;93.20
30825;DHT22;17550;45.486;12.222;2023-04-30T14:33:23;22.40;93.70
30825;DHT22;17550;45.486;12.222;2023-04-30T14:35:49;22.30;93.90
30825;DHT22;17550;45.486;12.222;2023-04-30T14:38:14;22.40;94.20
30825;DHT22;17550;45.486;12.222;2023-04-30T14:40:42;22.40;94.40
30825;DHT22;17550;45.486;12.222;2023-04-30T14:43:08;22.40;94.00
30825;DHT22;17550;45.486;12.222;2023-04-30T14:45:33;22.40;94.30
30825;DHT22;17550;45.486;12.222;2023-04-30T14:47:59;22.40;94.30
30825;DHT22;17550;45.486;12.222;2023-04-30T14:50:26;22.40;94.60
30825;DHT22;17550;45.486;12.222;2023-04-30T14:52:51;22.40;94.70
30825;DHT22;17550;45.486;12.222;2023-04-30T14:55:17;22.40;94.60
30825;DHT22;17550;45.486;12.222;2023-04-30T14:57:43;22.30;94.70
30825;DHT22;17550;45.486;12.222;2023-04-30T15:00:09;22.20;94.70
30825;DHT22;17550;45.486;12.222;2023-04-30T15:02:36;22.10;94.80
30825;DHT22;17550;45.486;12.222;2023-04-30T15:05:03;22.10;94.70
30825;DHT22;17550;45.486;12.222;2023-04-30T15:07:29;22.10;94.80
30825;DHT22;17550;45.486;12.222;2023-04-30T15:09:55;22.00;94.30
30825;DHT22;17550;45.486;12.222;2023-04-30T15:12:21;21.80;94.60
30825;DHT22;17550;45.486;12.222;2023-04-30T15:14:47;21.90;94.90
30825;DHT22;17550;45.486;12.222;2023-04-30T15:17:13;21.90;95.00
30825;DHT22;17550;45.486;12.222;2023-04-30T15:19:38;21.70;94.50
30825;DHT22;17550;45.486;12.222;2023-04-30T15:22:05;21.60;95.00
30825;DHT22;17550;45.486;12.222;2023-04-30T15:24:31;21.70;95.10
30825;DHT22;17550;45.486;12.222;2023-04-30T15:26:57;21.70;95.10
30825;DHT22;17550;45.486;12.222;2023-04-30T15:29:23;21.70;95.00
30825;DHT22;17550;45.486;12.222;2023-04-30T15:31:49;21.70;95.00
30825;DHT22;17550;45.486;12.222;2023-04-30T15:34:20;21.80;95.20
30825;DHT22;17550;45.486;12.222;2023-04-30T15:36:46;21.80;95.00
30825;DHT22;17550;45.486;12.222;2023-04-30T15:39:12;21.80;95.00